sensor_id;sensor_type;location;lat;lon;timestamp;pressure;altitude;pressure_sealevel;temperature;humidity
77893;BME280;67087;50.094;14.338;2023-09-30T00:02:14;98396.86;;;26.17;32.52
77893;BME280;67087;50.094;14.338;2023-09-30T00:04:39;98398.02;;;26.14;32.18
77893;BME280;67087;50.094;14.338;2023-09-30T00:07:05;98400.36;;;25.97;32.21
77893;BME280;67087;50.094;14.338;2023-09-30T00:09:30;98405.04;;;26.79;31.67
77893;BME280;67087;50.094;14.338;2023-09-30T00:11:55;98406.98;;;26.13;32.14
77893;BME280;67087;50.094;14.338;2023-09-30T00:14:20;98401.29;;;25.86;32.40
77893;BME280;67087;50.094;14.338;2023-09-30T00:16:45;98406.70;;;26.76;31.57
77893;BME280;67087;50.094;14.338;2023-09-30T00:19:10;98408.26;;;26.49;31.54
77893;BME280;67087;50.094;14.338;2023-09-30T00:21:36;98403.18;;;26.53;31.68
77893;BME280;67087;50.094;14.338;2023-09-30T00:24:01;98395.04;;;25.71;32.05
77893;BME280;67087;50.094;14.338;2023-09-30T00:26:26;98402.95;;;26.08;32.06
77893;BME280;67087;50.094;14.338;2023-09-30T00:28:52;98407.46;;;26.29;31.56
77893;BME280;67087;50.094;14.338;2023-09-30T00:31:17;98405.27;;;26.27;31.38
77893;BME280;67087;50.094;14.338;2023-09-30T00:33:42;98402.36;;;26.13;31.73
77893;BME280;67087;50.094;14.338;2023-09-30T00:36:09;98402.99;;;25.70;31.78
77893;BME280;67087;50.094;14.338;2023-09-30T00:38:33;98406.17;;;26.21;31.49
77893;BME280;67087;50.094;14.338;2023-09-30T00:40:59;98407.13;;;26.11;31.20
77893;BME280;67087;50.094;14.338;2023-09-30T00:43:24;98414.42;;;26.08;31.15
77893;BME280;67087;50.094;14.338;2023-09-30T00:45:51;98420.10;;;26.18;31.20
77893;BME280;67087;50.094;14.338;2023-09-30T00:48:16;98416.46;;;26.02;31.33
77893;BME280;67087;50.094;14.338;2023-09-30T00:50:41;98414.98;;;26.32;31.21
77893;BME280;67087;50.094;14.338;2023-09-30T00:53:07;98420.15;;;25.36;31.94
77893;BME280;67087;50.094;14.338;2023-09-30T00:55:31;98416.92;;;25.79;31.21
77893;BME280;67087;50.094;14.338;2023-09-30T00:57:57;98420.80;;;25.66;31.59
77893;BME280;67087;50.094;14.338;2023-09-30T01:00:22;98422.76;;;26.04;31.18
77893;BME280;67087;50.094;14.338;2023-09-30T01:02:48;98424.94;;;25.68;31.52
77893;BME280;67087;50.094;14.338;2023-09-30T01:05:13;98430.64;;;25.58;31.74
77893;BME280;67087;50.094;14.338;2023-09-30T01:07:38;98429.57;;;26.59;30.53
77893;BME280;67087;50.094;14.338;2023-09-30T01:10:04;98431.56;;;26.27;30.79
77893;BME280;67087;50.094;14.338;2023-09-30T01:12:28;98436.51;;;25.76;31.36
77893;BME280;67087;50.094;14.338;2023-09-30T01:14:57;98440.90;;;26.02;31.05
77893;BME280;67087;50.094;14.338;2023-09-30T01:17:20;98441.44;;;26.36;30.46
77893;BME280;67087;50.094;14.338;2023-09-30T01:19:46;98440.14;;;26.13;30.84
77893;BME280;67087;50.094;14.338;2023-09-30T01:22:12;98443.36;;;25.66;31.01
77893;BME280;67087;50.094;14.338;2023-09-30T01:24:39;98442.78;;;25.91;30.76
77893;BME280;67087;50.094;14.338;2023-09-30T01:27:02;98440.51;;;25.83;30.81
77893;BME280;67087;50.094;14.338;2023-09-30T01:29:27;98435.60;;;25.92;30.98
77893;BME280;67087;50.094;14.338;2023-09-30T01:31:52;98432.98;;;26.02;30.68
77893;BME280;67087;50.094;14.338;2023-09-30T01:34:17;98439.23;;;25.96;30.82
77893;BME280;67087;50.094;14.338;2023-09-30T01:36:42;98438.03;;;25.41;31.37
77893;BME280;67087;50.094;14.338;2023-09-30T01:39:07;98434.90;;;25.89;30.87
77893;BME280;67087;50.094;14.338;2023-09-30T01:41:33;98434.25;;;25.79;30.92
77893;BME280;67087;50.094;14.338;2023-09-30T01:43:58;98432.61;;;25.50;31.14
77893;BME280;67087;50.094;14.338;2023-09-30T01:46:23;98434.92;;;25.98;30.66
77893;BME280;67087;50.094;14.338;2023-09-30T01:48:49;98439.28;;;25.88;30.66
77893;BME280;67087;50.094;14.338;2023-09-30T01:51:14;98446.19;;;25.88;30.70
77893;BME280;67087;50.094;14.338;2023-09-30T01:53:39;98448.77;;;26.16;30.44
77893;BME280;67087;50.094;14.338;2023-09-30T01:56:05;98450.59;;;25.16;31.22
77893;BME280;67087;50.094;14.338;2023-09-30T01:58:30;98449.70;;;25.83;30.76
77893;BME280;67087;50.094;14.338;2023-09-30T02:01:02;98447.81;;;25.84;30.70
77893;BME280;67087;50.094;14.338;2023-09-30T02:03:20;98448.62;;;25.85;30.68
77893;BME280;67087;50.094;14.338;2023-09-30T02:05:46;98447.19;;;25.54;31.08
77893;BME280;67087;50.094;14.338;2023-09-30T02:08:11;98447.81;;;25.89;30.56
77893;BME280;67087;50.094;14.338;2023-09-30T02:10:37;98450.02;;;25.82;30.76
77893;BME280;67087;50.094;14.338;2023-09-30T02:13:02;98454.11;;;25.47;30.86
77893;BME280;67087;50.094;14.338;2023-09-30T02:15:27;98456.87;;;25.64;30.72
77893;BME280;67087;50.094;14.338;2023-09-30T02:17:53;98462.75;;;25.52;30.88
77893;BME280;67087;50.094;14.338;2023-09-30T02:20:18;98463.82;;;25.44;30.97
77893;BME280;67087;50.094;14.338;2023-09-30T02:22:43;98460.81;;;26.00;30.43
77893;BME280;67087;50.094;14.338;2023-09-30T02:25:09;98466.49;;;25.62;30.72
77893;BME280;67087;50.094;14.338;2023-09-30T02:27:34;98471.75;;;25.68;30.69
77893;BME280;67087;50.094;14.338;2023-09-30T02:30:00;98473.67;;;25.68;30.62
77893;BME280;67087;50.094;14.338;2023-09-30T02:32:25;98483.45;;;25.28;31.04
77893;BME280;67087;50.094;14.338;2023-09-30T02:34:51;98485.04;;;25.60;30.86
77893;BME280;67087;50.094;14.338;2023-09-30T02:37:16;98485.16;;;25.67;30.87
77893;BME280;67087;50.094;14.338;2023-09-30T02:39:41;98484.80;;;25.78;30.48
77893;BME280;67087;50.094;14.338;2023-09-30T02:42:06;98486.69;;;25.39;30.86
77893;BME280;67087;50.094;14.338;2023-09-30T02:44:32;98482.86;;;25.45;30.86
77893;BME280;67087;50.094;14.338;2023-09-30T02:46:57;98485.37;;;25.15;31.08
77893;BME280;67087;50.094;14.338;2023-09-30T02:49:22;98487.57;;;25.69;30.75
77893;BME280;67087;50.094;14.338;2023-09-30T02:51:47;98494.44;;;25.41;30.85
77893;BME280;67087;50.094;14.338;2023-09-30T02:54:16;98488.90;;;25.65;30.44
77893;BME280;67087;50.094;14.338;2023-09-30T02:56:38;98497.17;;;25.23;30.99
77893;BME280;67087;50.094;14.338;2023-09-30T02:59:03;98504.34;;;25.11;31.05
77893;BME280;67087;50.094;14.338;2023-09-30T03:01:29;98508.78;;;25.61;30.99
77893;BME280;67087;50.094;14.338;2023-09-30T03:03:54;98509.74;;;25.57;30.95
77893;BME280;67087;50.094;14.338;2023-09-30T03:06:20;98515.35;;;25.32;30.81
77893;BME280;67087;50.094;14.338;2023-09-30T03:08:45;98515.02;;;25.43;30.97
77893;BME280;67087;50.094;14.338;2023-09-30T03:11:11;98521.02;;;25.58;30.92
77893;BME280;67087;50.094;14.338;2023-09-30T03:13:37;98516.12;;;25.31;31.06
77893;BME280;67087;50.094;14.338;2023-09-30T03:16:02;98515.50;;;25.16;30.67
77893;BME280;67087;50.094;14.338;2023-09-30T03:18:27;98517.78;;;25.92;30.56
77893;BME280;67087;50.094;14.338;2023-09-30T03:20:58;98523.97;;;25.38;30.67
77893;BME280;67087;50.094;14.338;2023-09-30T03:23:17;98526.45;;;25.52;30.72
77893;BME280;67087;50.094;14.338;2023-09-30T03:25:44;98532.56;;;25.60;30.83
77893;BME280;67087;50.094;14.338;2023-09-30T03:28:08;98534.64;;;24.94;31.02
77893;BME280;67087;50.094;14.338;2023-09-30T03:30:34;98537.01;;;25.06;31.20
77893;BME280;67087;50.094;14.338;2023-09-30T03:33:00;98535.30;;;24.94;30.97
77893;BME280;67087;50.094;14.338;2023-09-30T03:35:25;98537.06;;;25.25;31.22
77893;BME280;67087;50.094;14.338;2023-09-30T03:37:51;98537.85;;;25.10;31.17
77893;BME280;67087;50.094;14.338;2023-09-30T03:40:16;98540.56;;;24.86;31.37
77893;BME280;67087;50.094;14.338;2023-09-30T03:42:41;98544.47;;;25.00;30.95
77893;BME280;67087;50.094;14.338;2023-09-30T03:45:07;98547.80;;;25.14;31.08
77893;BME280;67087;50.094;14.338;2023-09-30T03:47:32;98547.09;;;24.87;31.39
77893;BME280;67087;50.094;14.338;2023-09-30T03:49:57;98548.68;;;25.46;30.46
77893;BME280;67087;50.094;14.338;2023-09-30T03:52:23;98552.50;;;24.87;31.18
77893;BME280;67087;50.094;14.338;2023-09-30T03:54:48;98556.18;;;24.90;31.12
77893;BME280;67087;50.094;14.338;2023-09-30T03:57:13;98559.95;;;24.99;31.05
77893;BME280;67087;50.094;14.338;2023-09-30T03:59:39;98561.60;;;25.04;30.99
77893;BME280;67087;50.094;14.338;2023-09-30T04:02:04;98566.72;;;24.93;31.17
77893;BME280;67087;50.094;14.338;2023-09-30T04:04:30;98569.60;;;25.30;30.69
77893;BME280;67087;50.094;14.338;2023-09-30T04:06:56;98574.87;;;25.52;31.05
77893;BME280;67087;50.094;14.338;2023-09-30T04:09:21;98575.83;;;25.59;30.32
77893;BME280;67087;50.094;14.338;2023-09-30T04:11:47;98584.95;;;25.05;30.68
77893;BME280;67087;50.094;14.338;2023-09-30T04:14:12;98586.71;;;25.24;30.70
77893;BME280;67087;50.094;14.338;2023-09-30T04:16:38;98592.62;;;24.66;31.39
77893;BME280;67087;50.094;14.338;2023-09-30T04:19:03;98602.21;;;25.00;31.01
77893;BME280;67087;50.094;14.338;2023-09-30T04:21:29;98606.43;;;24.86;31.13
77893;BME280;67087;50.094;14.338;2023-09-30T04:23:54;98610.38;;;25.46;31.11
77893;BME280;67087;50.094;14.338;2023-09-30T04:26:19;98611.22;;;25.52;31.07
77893;BME280;67087;50.094;14.338;2023-09-30T04:28:45;98611.05;;;24.83;31.33
77893;BME280;67087;50.094;14.338;2023-09-30T04:31:10;98614.22;;;24.89;31.34
77893;BME280;67087;50.094;14.338;2023-09-30T04:33:35;98623.68;;;24.85;31.73
77893;BME280;67087;50.094;14.338;2023-09-30T04:36:01;98631.90;;;24.02;32.20
77893;BME280;67087;50.094;14.338;2023-09-30T04:38:26;98645.51;;;25.08;31.84
77893;BME280;67087;50.094;14.338;2023-09-30T04:40:51;98646.20;;;24.57;32.47
77893;BME280;67087;50.094;14.338;2023-09-30T04:43:17;98646.71;;;24.55;32.64
77893;BME280;67087;50.094;14.338;2023-09-30T04:45:42;98638.86;;;24.86;32.33
77893;BME280;67087;50.094;14.338;2023-09-30T04:48:07;98642.35;;;24.87;32.31
77893;BME280;67087;50.094;14.338;2023-09-30T04:50:32;98648.24;;;24.83;32.58
77893;BME280;67087;50.094;14.338;2023-09-30T04:52:58;98658.16;;;24.83;32.67
77893;BME280;67087;50.094;14.338;2023-09-30T04:55:22;98659.37;;;24.56;33.05
77893;BME280;67087;50.094;14.338;2023-09-30T04:57:48;98663.14;;;24.82;32.78
77893;BME280;67087;50.094;14.338;2023-09-30T05:00:14;98669.25;;;24.63;33.02
77893;BME280;67087;50.094;14.338;2023-09-30T05:02:38;98676.72;;;24.90;32.70
77893;BME280;67087;50.094;14.338;2023-09-30T05:05:03;98681.83;;;24.39;32.71
77893;BME280;67087;50.094;14.338;2023-09-30T05:07:28;98687.24;;;24.90;32.76
77893;BME280;67087;50.094;14.338;2023-09-30T05:09:53;98694.49;;;24.84;32.51
77893;BME280;67087;50.094;14.338;2023-09-30T05:12:18;98699.69;;;24.96;32.38
77893;BME280;67087;50.094;14.338;2023-09-30T05:14:43;98709.53;;;24.74;32.38
77893;BME280;67087;50.094;14.338;2023-09-30T05:17:08;98708.34;;;24.66;32.44
77893;BME280;67087;50.094;14.338;2023-09-30T05:19:33;98705.70;;;24.93;32.08
77893;BME280;67087;50.094;14.338;2023-09-30T05:21:59;98710.24;;;24.79;32.27
77893;BME280;67087;50.094;14.338;2023-09-30T05:24:24;98697.05;;;24.88;31.98
77893;BME280;67087;50.094;14.338;2023-09-30T05:26:49;98708.06;;;24.78;32.12
77893;BME280;67087;50.094;14.338;2023-09-30T05:29:14;98716.30;;;24.61;32.30
77893;BME280;67087;50.094;14.338;2023-09-30T05:31:39;98724.05;;;25.30;32.03
77893;BME280;67087;50.094;14.338;2023-09-30T05:34:04;98716.91;;;24.74;32.13
77893;BME280;67087;50.094;14.338;2023-09-30T05:36:29;98712.34;;;25.00;32.08
77893;BME280;67087;50.094;14.338;2023-09-30T05:38:54;98715.37;;;24.92;31.90
77893;BME280;67087;50.094;14.338;2023-09-30T05:41:19;98734.29;;;24.69;31.86
77893;BME280;67087;50.094;14.338;2023-09-30T05:43:45;98738.14;;;24.65;32.20
77893;BME280;67087;50.094;14.338;2023-09-30T05:46:10;98742.35;;;24.90;31.94
77893;BME280;67087;50.094;14.338;2023-09-30T05:48:35;98744.68;;;25.29;32.02
77893;BME280;67087;50.094;14.338;2023-09-30T05:51:00;98740.90;;;24.87;32.00
77893;BME280;67087;50.094;14.338;2023-09-30T05:53:25;98744.86;;;24.88;31.95
77893;BME280;67087;50.094;14.338;2023-09-30T05:55:50;98739.51;;;25.32;31.72
77893;BME280;67087;50.094;14.338;2023-09-30T05:58:16;98741.77;;;25.10;31.70
77893;BME280;67087;50.094;14.338;2023-09-30T06:00:40;98748.90;;;24.98;31.80
77893;BME280;67087;50.094;14.338;2023-09-30T06:03:05;98753.58;;;24.91;31.90
77893;BME280;67087;50.094;14.338;2023-09-30T06:05:31;98753.93;;;25.14;31.91
77893;BME280;67087;50.094;14.338;2023-09-30T06:07:56;98756.34;;;25.02;31.66
77893;BME280;67087;50.094;14.338;2023-09-30T06:10:21;98753.15;;;24.93;31.73
77893;BME280;67087;50.094;14.338;2023-09-30T06:12:47;98754.45;;;24.85;31.89
77893;BME280;67087;50.094;14.338;2023-09-30T06:15:11;98757.19;;;24.80;31.96
77893;BME280;67087;50.094;14.338;2023-09-30T06:17:36;98757.98;;;25.04;31.43
77893;BME280;67087;50.094;14.338;2023-09-30T06:20:04;98760.90;;;24.68;31.57
77893;BME280;67087;50.094;14.338;2023-09-30T06:22:26;98764.14;;;24.88;31.63
77893;BME280;67087;50.094;14.338;2023-09-30T06:24:51;98771.84;;;24.90;31.56
77893;BME280;67087;50.094;14.338;2023-09-30T06:27:17;98776.88;;;24.97;31.43
77893;BME280;67087;50.094;14.338;2023-09-30T06:29:42;98779.54;;;24.90;31.52
77893;BME280;67087;50.094;14.338;2023-09-30T06:32:07;98778.55;;;25.44;30.85
77893;BME280;67087;50.094;14.338;2023-09-30T06:34:32;98780.23;;;24.89;31.49
77893;BME280;67087;50.094;14.338;2023-09-30T06:36:57;98781.86;;;25.39;30.70
77893;BME280;67087;50.094;14.338;2023-09-30T06:39:22;98788.30;;;24.76;31.26
77893;BME280;67087;50.094;14.338;2023-09-30T06:41:47;98785.00;;;25.63;30.42
77893;BME280;67087;50.094;14.338;2023-09-30T06:44:12;98793.07;;;24.77;31.41
77893;BME280;67087;50.094;14.338;2023-09-30T06:46:38;98800.73;;;24.90;31.27
77893;BME280;67087;50.094;14.338;2023-09-30T06:49:03;98791.95;;;24.41;31.51
77893;BME280;67087;50.094;14.338;2023-09-30T06:51:28;98791.63;;;24.82;31.73
77893;BME280;67087;50.094;14.338;2023-09-30T06:53:53;98796.42;;;24.72;31.61
77893;BME280;67087;50.094;14.338;2023-09-30T06:56:18;98797.83;;;25.06;31.27
77893;BME280;67087;50.094;14.338;2023-09-30T06:58:43;98805.58;;;25.09;31.53
77893;BME280;67087;50.094;14.338;2023-09-30T07:01:08;98813.03;;;24.85;31.46
77893;BME280;67087;50.094;14.338;2023-09-30T07:03:33;98815.76;;;24.92;31.36
77893;BME280;67087;50.094;14.338;2023-09-30T07:05:59;98821.09;;;25.44;31.07
77893;BME280;67087;50.094;14.338;2023-09-30T07:08:23;98826.21;;;24.97;31.17
77893;BME280;67087;50.094;14.338;2023-09-30T07:10:49;98833.18;;;25.52;31.16
77893;BME280;67087;50.094;14.338;2023-09-30T07:13:14;98839.41;;;24.92;31.24
77893;BME280;67087;50.094;14.338;2023-09-30T07:15:39;98843.69;;;24.84;31.20
77893;BME280;67087;50.094;14.338;2023-09-30T07:18:04;98849.05;;;24.65;31.51
77893;BME280;67087;50.094;14.338;2023-09-30T07:20:29;98857.62;;;24.67;31.50
77893;BME280;67087;50.094;14.338;2023-09-30T07:22:54;98867.46;;;24.86;31.22
77893;BME280;67087;50.094;14.338;2023-09-30T07:25:19;98876.60;;;25.41;30.52
77893;BME280;67087;50.094;14.338;2023-09-30T07:27:44;98876.00;;;24.70;31.38
77893;BME280;67087;50.094;14.338;2023-09-30T07:30:11;98875.53;;;24.68;31.17
77893;BME280;67087;50.094;14.338;2023-09-30T07:32:35;98879.35;;;24.98;30.71
77893;BME280;67087;50.094;14.338;2023-09-30T07:35:00;98879.60;;;24.49;30.65
77893;BME280;67087;50.094;14.338;2023-09-30T07:37:25;98892.61;;;25.44;30.50
77893;BME280;67087;50.094;14.338;2023-09-30T07:39:50;98897.55;;;25.17;30.15
77893;BME280;67087;50.094;14.338;2023-09-30T07:42:15;98898.36;;;24.62;30.88
77893;BME280;67087;50.094;14.338;2023-09-30T07:44:41;98899.33;;;25.00;30.60
77893;BME280;67087;50.094;14.338;2023-09-30T07:47:05;98898.46;;;24.99;29.96
77893;BME280;67087;50.094;14.338;2023-09-30T07:49:30;98893.31;;;24.75;29.86
77893;BME280;67087;50.094;14.338;2023-09-30T07:51:55;98897.63;;;25.04;29.80
77893;BME280;67087;50.094;14.338;2023-09-30T07:54:21;98899.45;;;25.03;29.88
77893;BME280;67087;50.094;14.338;2023-09-30T07:56:46;98899.53;;;24.98;29.45
77893;BME280;67087;50.094;14.338;2023-09-30T07:59:11;98893.75;;;24.87;29.40
77893;BME280;67087;50.094;14.338;2023-09-30T08:01:36;98896.02;;;24.68;29.64
77893;BME280;67087;50.094;14.338;2023-09-30T08:04:01;98899.59;;;24.61;29.24
77893;BME280;67087;50.094;14.338;2023-09-30T08:06:26;98901.54;;;24.95;29.05
77893;BME280;67087;50.094;14.338;2023-09-30T08:08:51;98903.92;;;24.93;28.93
77893;BME280;67087;50.094;14.338;2023-09-30T08:11:18;98901.61;;;25.23;28.82
77893;BME280;67087;50.094;14.338;2023-09-30T08:13:42;98901.92;;;24.89;28.67
77893;BME280;67087;50.094;14.338;2023-09-30T08:16:07;98898.49;;;24.97;28.60
77893;BME280;67087;50.094;14.338;2023-09-30T08:18:32;98893.36;;;25.05;28.66
77893;BME280;67087;50.094;14.338;2023-09-30T08:20:58;98892.67;;;25.51;28.17
77893;BME280;67087;50.094;14.338;2023-09-30T08:23:22;98890.95;;;25.10;28.38
77893;BME280;67087;50.094;14.338;2023-09-30T08:25:48;98893.13;;;24.89;28.11
77893;BME280;67087;50.094;14.338;2023-09-30T08:28:13;98899.03;;;24.82;28.15
77893;BME280;67087;50.094;14.338;2023-09-30T08:30:38;98902.82;;;24.72;28.28
77893;BME280;67087;50.094;14.338;2023-09-30T08:33:04;98904.01;;;25.33;27.49
77893;BME280;67087;50.094;14.338;2023-09-30T08:35:28;98912.08;;;24.92;27.86
77893;BME280;67087;50.094;14.338;2023-09-30T08:37:53;98910.67;;;24.96;28.23
77893;BME280;67087;50.094;14.338;2023-09-30T08:40:20;98905.96;;;25.44;27.47
77893;BME280;67087;50.094;14.338;2023-09-30T08:42:43;98911.85;;;25.27;27.71
77893;BME280;67087;50.094;14.338;2023-09-30T08:45:10;98914.91;;;24.86;27.90
77893;BME280;67087;50.094;14.338;2023-09-30T08:47:34;98918.79;;;24.83;27.92
77893;BME280;67087;50.094;14.338;2023-09-30T08:49:59;98919.05;;;24.77;28.13
77893;BME280;67087;50.094;14.338;2023-09-30T08:52:24;98927.71;;;25.15;27.70
77893;BME280;67087;50.094;14.338;2023-09-30T08:54:49;98927.49;;;25.27;27.19
77893;BME280;67087;50.094;14.338;2023-09-30T08:57:15;98918.68;;;25.24;27.59
77893;BME280;67087;50.094;14.338;2023-09-30T08:59:41;98911.99;;;25.13;27.82
77893;BME280;67087;50.094;14.338;2023-09-30T09:02:08;98913.61;;;24.66;27.68
77893;BME280;67087;50.094;14.338;2023-09-30T09:04:30;98907.01;;;24.71;28.02
77893;BME280;67087;50.094;14.338;2023-09-30T09:06:54;98913.68;;;24.89;27.74
77893;BME280;67087;50.094;14.338;2023-09-30T09:09:20;98911.91;;;25.45;27.02
77893;BME280;67087;50.094;14.338;2023-09-30T09:11:45;98910.01;;;25.10;27.06
77893;BME280;67087;50.094;14.338;2023-09-30T09:14:10;98906.69;;;24.73;27.64
77893;BME280;67087;50.094;14.338;2023-09-30T09:16:35;98913.07;;;24.87;27.53
77893;BME280;67087;50.094;14.338;2023-09-30T09:21:25;98929.15;;;24.80;27.36
77893;BME280;67087;50.094;14.338;2023-09-30T09:23:51;98934.72;;;25.06;27.11
77893;BME280;67087;50.094;14.338;2023-09-30T09:26:24;98929.36;;;24.87;27.00
77893;BME280;67087;50.094;14.338;2023-09-30T09:28:41;98935.81;;;25.15;26.83
77893;BME280;67087;50.094;14.338;2023-09-30T09:33:35;98923.21;;;25.00;26.72
77893;BME280;67087;50.094;14.338;2023-09-30T09:35:56;98936.40;;;24.81;26.90
77893;BME280;67087;50.094;14.338;2023-09-30T09:38:21;98939.40;;;25.32;26.54
77893;BME280;67087;50.094;14.338;2023-09-30T09:40:46;98937.14;;;25.17;26.35
77893;BME280;67087;50.094;14.338;2023-09-30T09:43:11;98948.23;;;24.93;26.54
77893;BME280;67087;50.094;14.338;2023-09-30T09:45:37;98941.43;;;24.86;26.20
77893;BME280;67087;50.094;14.338;2023-09-30T09:48:03;98937.94;;;24.51;26.74
77893;BME280;67087;50.094;14.338;2023-09-30T09:50:27;98942.55;;;25.08;26.30
77893;BME280;67087;50.094;14.338;2023-09-30T09:52:54;98956.55;;;24.73;26.89
77893;BME280;67087;50.094;14.338;2023-09-30T09:55:18;98957.88;;;25.00;26.35
77893;BME280;67087;50.094;14.338;2023-09-30T09:57:43;98950.67;;;24.69;26.59
77893;BME280;67087;50.094;14.338;2023-09-30T10:00:09;98946.60;;;25.23;26.68
77893;BME280;67087;50.094;14.338;2023-09-30T10:02:32;98943.79;;;25.12;26.93
77893;BME280;67087;50.094;14.338;2023-09-30T10:04:58;98942.30;;;25.31;26.18
77893;BME280;67087;50.094;14.338;2023-09-30T10:07:28;98936.83;;;25.15;26.42
77893;BME280;67087;50.094;14.338;2023-09-30T10:09:51;98936.55;;;25.41;25.54
77893;BME280;67087;50.094;14.338;2023-09-30T10:12:14;98933.87;;;24.86;26.00
77893;BME280;67087;50.094;14.338;2023-09-30T10:14:38;98931.80;;;24.73;26.38
77893;BME280;67087;50.094;14.338;2023-09-30T10:17:03;98931.16;;;24.46;26.15
77893;BME280;67087;50.094;14.338;2023-09-30T10:19:28;98933.92;;;24.88;25.89
77893;BME280;67087;50.094;14.338;2023-09-30T10:24:28;98937.25;;;25.27;25.87
77893;BME280;67087;50.094;14.338;2023-09-30T10:26:44;98937.97;;;24.67;26.15
77893;BME280;67087;50.094;14.338;2023-09-30T10:29:09;98941.80;;;24.98;25.92
77893;BME280;67087;50.094;14.338;2023-09-30T10:36:27;98944.73;;;25.11;24.87
77893;BME280;67087;50.094;14.338;2023-09-30T10:38:49;98948.03;;;24.98;25.49
77893;BME280;67087;50.094;14.338;2023-09-30T10:43:41;98940.13;;;25.04;25.62
77893;BME280;67087;50.094;14.338;2023-09-30T10:48:35;98936.08;;;25.26;25.35
77893;BME280;67087;50.094;14.338;2023-09-30T10:50:56;98940.40;;;25.49;24.96
77893;BME280;67087;50.094;14.338;2023-09-30T10:53:20;98926.92;;;25.01;25.34
77893;BME280;67087;50.094;14.338;2023-09-30T10:55:45;98932.95;;;24.72;25.83
77893;BME280;67087;50.094;14.338;2023-09-30T10:58:10;98926.14;;;25.10;25.40
77893;BME280;67087;50.094;14.338;2023-09-30T11:00:35;98937.58;;;24.86;25.52
77893;BME280;67087;50.094;14.338;2023-09-30T11:03:01;98944.53;;;25.20;25.09
77893;BME280;67087;50.094;14.338;2023-09-30T11:05:26;98947.99;;;25.98;24.56
77893;BME280;67087;50.094;14.338;2023-09-30T11:07:53;98944.91;;;24.78;25.39
77893;BME280;67087;50.094;14.338;2023-09-30T11:10:17;98944.31;;;25.21;25.70
77893;BME280;67087;50.094;14.338;2023-09-30T11:12:54;98949.75;;;25.00;25.39
77893;BME280;67087;50.094;14.338;2023-09-30T11:15:07;98949.69;;;25.55;24.60
77893;BME280;67087;50.094;14.338;2023-09-30T11:17:31;98947.75;;;25.51;24.58
77893;BME280;67087;50.094;14.338;2023-09-30T11:19:56;98941.32;;;26.09;24.37
77893;BME280;67087;50.094;14.338;2023-09-30T11:22:21;98939.80;;;25.16;25.16
77893;BME280;67087;50.094;14.338;2023-09-30T11:24:47;98940.69;;;25.15;25.34
77893;BME280;67087;50.094;14.338;2023-09-30T11:27:12;98937.21;;;25.10;25.21
77893;BME280;67087;50.094;14.338;2023-09-30T11:29:48;98936.95;;;25.14;25.27
77893;BME280;67087;50.094;14.338;2023-09-30T11:32:02;98934.59;;;24.56;25.28
77893;BME280;67087;50.094;14.338;2023-09-30T11:34:31;98931.97;;;25.53;24.70
77893;BME280;67087;50.094;14.338;2023-09-30T11:36:53;98930.07;;;25.19;25.24
77893;BME280;67087;50.094;14.338;2023-09-30T11:39:22;98928.34;;;25.11;25.38
77893;BME280;67087;50.094;14.338;2023-09-30T11:41:43;98921.73;;;25.06;25.53
77893;BME280;67087;50.094;14.338;2023-09-30T11:44:10;98922.11;;;25.17;25.35
77893;BME280;67087;50.094;14.338;2023-09-30T11:46:47;98922.07;;;25.26;25.15
77893;BME280;67087;50.094;14.338;2023-09-30T11:49:00;98918.78;;;25.47;24.54
77893;BME280;67087;50.094;14.338;2023-09-30T11:51:23;98917.66;;;25.33;25.42
77893;BME280;67087;50.094;14.338;2023-09-30T11:53:49;98919.30;;;25.17;25.04
77893;BME280;67087;50.094;14.338;2023-09-30T11:56:13;98910.30;;;25.09;25.17
77893;BME280;67087;50.094;14.338;2023-09-30T11:58:39;98922.28;;;25.54;24.27
77893;BME280;67087;50.094;14.338;2023-09-30T12:01:04;98920.67;;;24.95;24.70
77893;BME280;67087;50.094;14.338;2023-09-30T12:03:29;98917.44;;;25.17;24.41
77893;BME280;67087;50.094;14.338;2023-09-30T12:05:54;98917.52;;;25.77;24.32
77893;BME280;67087;50.094;14.338;2023-09-30T12:08:19;98911.55;;;25.39;23.88
77893;BME280;67087;50.094;14.338;2023-09-30T12:10:44;98905.83;;;25.51;23.94
77893;BME280;67087;50.094;14.338;2023-09-30T12:13:09;98910.22;;;25.22;24.43
77893;BME280;67087;50.094;14.338;2023-09-30T12:15:34;98912.56;;;25.45;24.47
77893;BME280;67087;50.094;14.338;2023-09-30T12:18:00;98910.73;;;25.04;24.48
77893;BME280;67087;50.094;14.338;2023-09-30T12:20:25;98911.32;;;25.15;23.69
77893;BME280;67087;50.094;14.338;2023-09-30T12:22:50;98909.14;;;25.16;24.15
77893;BME280;67087;50.094;14.338;2023-09-30T12:25:15;98904.14;;;25.89;24.33
77893;BME280;67087;50.094;14.338;2023-09-30T12:27:40;98900.78;;;25.67;24.05
77893;BME280;67087;50.094;14.338;2023-09-30T12:30:06;98898.14;;;25.51;24.29
77893;BME280;67087;50.094;14.338;2023-09-30T12:32:30;98896.90;;;25.49;24.24
77893;BME280;67087;50.094;14.338;2023-09-30T12:34:55;98898.84;;;25.31;23.81
77893;BME280;67087;50.094;14.338;2023-09-30T12:37:20;98893.31;;;25.16;24.07
77893;BME280;67087;50.094;14.338;2023-09-30T12:39:46;98891.47;;;25.14;24.15
77893;BME280;67087;50.094;14.338;2023-09-30T12:42:11;98887.04;;;25.49;23.63
77893;BME280;67087;50.094;14.338;2023-09-30T12:44:36;98884.42;;;25.58;23.78
77893;BME280;67087;50.094;14.338;2023-09-30T12:47:01;98881.76;;;25.12;23.90
77893;BME280;67087;50.094;14.338;2023-09-30T12:49:26;98883.47;;;25.39;23.52
77893;BME280;67087;50.094;14.338;2023-09-30T12:51:51;98892.12;;;25.85;23.37
77893;BME280;67087;50.094;14.338;2023-09-30T12:54:16;98887.83;;;25.44;23.35
77893;BME280;67087;50.094;14.338;2023-09-30T12:56:41;98888.79;;;25.64;22.83